EWG51D EDDL-LSZH
Flight info
| Callsign | EWG51D |
|---|---|
| Flight time | N/A |
| Altitude | 31000 |
| Route | DODEN7Z DODEN Y852 TUSUK DCT ULNOK L607 SUNEG T721 LAMGO/N0424F270 T721 RILAX |
| Aircraft | A321/M-SDE3FGHIRWY/LB1 |
Departure
| Time | 2026-05-05 19:34 |
|---|---|
| Airport | Düsseldorf Airport (EDDL) |
Arrival
| Time | N/A |
|---|---|
| Airport | Zürich Airport (LSZH) |
| Time | Latitude | Longitude | Altitude | Speed | Heading |
|---|---|---|---|---|---|
| 2026-05-05 18:47 | 51.28109 | 6.76539 | 128 ft | 0 kts | 96° |
| 2026-05-05 18:47 | 51.28109 | 6.76532 | 127 ft | 0 kts | 96° |
| 2026-05-05 19:23 | 51.28111 | 6.76503 | 124 ft | 4 kts | 97° |
| 2026-05-05 19:23 | 51.28116 | 6.76461 | 124 ft | 4 kts | 107° |
| 2026-05-05 19:23 | 51.28126 | 6.76426 | 124 ft | 4 kts | 152° |
| 2026-05-05 19:24 | 51.28147 | 6.76423 | 125 ft | 4 kts | 187° |
| 2026-05-05 19:24 | 51.28174 | 6.76428 | 125 ft | 4 kts | 188° |
| 2026-05-05 19:24 | 51.28201 | 6.76435 | 122 ft | 4 kts | 191° |
| 2026-05-05 19:24 | 51.28227 | 6.76445 | 123 ft | 4 kts | 200° |
| 2026-05-05 19:25 | 51.28249 | 6.76464 | 122 ft | 3 kts | 230° |
| 2026-05-05 19:25 | 51.28263 | 6.76493 | 122 ft | 4 kts | 233° |
| 2026-05-05 19:25 | 51.28279 | 6.76528 | 121 ft | 4 kts | 232° |
| 2026-05-05 19:25 | 51.28296 | 6.76562 | 120 ft | 4 kts | 232° |
| 2026-05-05 19:26 | 51.28312 | 6.76596 | 103 ft | 4 kts | 232° |
| 2026-05-05 19:26 | 51.28322 | 6.76616 | 127 ft | 1 kts | 232° |
| 2026-05-05 19:28 | 51.28322 | 6.76615 | 127 ft | 1 kts | 232° |
| 2026-05-05 19:29 | 51.28302 | 6.76573 | 120 ft | 7 kts | 238° |
| 2026-05-05 19:29 | 51.28305 | 6.76503 | 107 ft | 8 kts | 297° |
| 2026-05-05 19:29 | 51.28314 | 6.76424 | 125 ft | 7 kts | 253° |
| 2026-05-05 19:29 | 51.28285 | 6.76349 | 125 ft | 8 kts | 233° |
| 2026-05-05 19:30 | 51.28248 | 6.76272 | 126 ft | 9 kts | 233° |
| 2026-05-05 19:30 | 51.28210 | 6.76190 | 127 ft | 10 kts | 233° |
| 2026-05-05 19:30 | 51.28168 | 6.76102 | 129 ft | 10 kts | 233° |
| 2026-05-05 19:30 | 51.28121 | 6.76003 | 127 ft | 12 kts | 232° |
| 2026-05-05 19:31 | 51.28068 | 6.75892 | 127 ft | 13 kts | 232° |
| 2026-05-05 19:31 | 51.28008 | 6.75769 | 126 ft | 15 kts | 232° |
| 2026-05-05 19:31 | 51.27943 | 6.75631 | 127 ft | 17 kts | 233° |
| 2026-05-05 19:31 | 51.27870 | 6.75478 | 123 ft | 17 kts | 232° |
| 2026-05-05 19:32 | 51.27850 | 6.75361 | 125 ft | 7 kts | 296° |
| 2026-05-05 19:32 | 51.27898 | 6.75303 | 125 ft | 10 kts | 333° |
| 2026-05-05 19:32 | 51.27969 | 6.75259 | 121 ft | 12 kts | 354° |
| 2026-05-05 19:32 | 51.28026 | 6.75332 | 124 ft | 11 kts | 53° |
| 2026-05-05 19:33 | 51.28073 | 6.75432 | 122 ft | 12 kts | 53° |
| 2026-05-05 19:33 | 51.28226 | 6.75752 | 129 ft | 73 kts | 52° |
| 2026-05-05 19:33 | 51.28680 | 6.76697 | 126 ft | 139 kts | 52° |
| 2026-05-05 19:33 | 51.29347 | 6.78114 | 363 ft | 172 kts | 50° |
| 2026-05-05 19:34 | 51.30093 | 6.79731 | 883 ft | 189 kts | 52° |
| 2026-05-05 19:34 | 51.30912 | 6.81476 | 1505 ft | 200 kts | 52° |
| 2026-05-05 19:34 | 51.31773 | 6.83261 | 2138 ft | 205 kts | 52° |
| 2026-05-05 19:35 | 51.33663 | 6.87188 | 2972 ft | 246 kts | 54° |
| 2026-05-05 19:35 | 51.34599 | 6.89525 | 3625 ft | 253 kts | 65° |
| 2026-05-05 19:35 | 51.35093 | 6.92257 | 4335 ft | 260 kts | 83° |
| 2026-05-05 19:35 | 51.35059 | 6.95176 | 5052 ft | 266 kts | 99° |
| 2026-05-05 19:36 | 51.34747 | 6.98121 | 5803 ft | 270 kts | 99° |
| 2026-05-05 19:36 | 51.34443 | 7.01110 | 6549 ft | 274 kts | 99° |
| 2026-05-05 19:36 | 51.34139 | 7.04139 | 7277 ft | 278 kts | 99° |
| 2026-05-05 19:36 | 51.33831 | 7.07206 | 8026 ft | 281 kts | 99° |
| 2026-05-05 19:37 | 51.33519 | 7.10310 | 8757 ft | 284 kts | 99° |
| 2026-05-05 19:37 | 51.32964 | 7.13351 | 9476 ft | 288 kts | 118° |
| 2026-05-05 19:37 | 51.31718 | 7.15857 | 10099 ft | 294 kts | 138° |
| 2026-05-05 19:37 | 51.30110 | 7.18071 | 10270 ft | 317 kts | 139° |
| 2026-05-05 19:38 | 51.28384 | 7.20369 | 10392 ft | 338 kts | 140° |
| 2026-05-05 19:38 | 51.26514 | 7.22827 | 10542 ft | 357 kts | 140° |
| 2026-05-05 19:38 | 51.24579 | 7.25369 | 11010 ft | 363 kts | 140° |
| 2026-05-05 19:38 | 51.22621 | 7.27946 | 11638 ft | 366 kts | 140° |
| 2026-05-05 19:39 | 51.20656 | 7.30540 | 12269 ft | 368 kts | 140° |
| 2026-05-05 19:39 | 51.18673 | 7.33164 | 12854 ft | 371 kts | 140° |
| 2026-05-05 19:39 | 51.16680 | 7.35802 | 13484 ft | 373 kts | 140° |
| 2026-05-05 19:39 | 51.14678 | 7.38446 | 14096 ft | 374 kts | 141° |
| 2026-05-05 19:40 | 51.12669 | 7.41100 | 14642 ft | 377 kts | 140° |
| 2026-05-05 19:40 | 51.10642 | 7.43781 | 15146 ft | 381 kts | 141° |
| 2026-05-05 19:40 | 51.08621 | 7.46452 | 15625 ft | 385 kts | 141° |
| 2026-05-05 19:40 | 51.06547 | 7.49184 | 16090 ft | 389 kts | 141° |
| 2026-05-05 19:41 | 51.04453 | 7.51933 | 16590 ft | 392 kts | 141° |
| 2026-05-05 19:41 | 51.02340 | 7.54705 | 17082 ft | 395 kts | 141° |
| 2026-05-05 19:41 | 51.00216 | 7.57486 | 17570 ft | 397 kts | 141° |
| 2026-05-05 19:41 | 50.98080 | 7.60281 | 18085 ft | 399 kts | 141° |
| 2026-05-05 19:42 | 50.95933 | 7.63088 | 18517 ft | 401 kts | 141° |
| 2026-05-05 19:42 | 50.93778 | 7.65904 | 18940 ft | 403 kts | 141° |
| 2026-05-05 19:42 | 50.91609 | 7.68739 | 19374 ft | 405 kts | 141° |
| 2026-05-05 19:42 | 50.89459 | 7.71543 | 19805 ft | 407 kts | 141° |
| 2026-05-05 19:43 | 50.87273 | 7.74391 | 20248 ft | 408 kts | 141° |
| 2026-05-05 19:43 | 50.85071 | 7.77257 | 20700 ft | 410 kts | 141° |
| 2026-05-05 19:43 | 50.82859 | 7.80135 | 21136 ft | 412 kts | 141° |
| 2026-05-05 19:43 | 50.80638 | 7.83018 | 21572 ft | 414 kts | 141° |
| 2026-05-05 19:44 | 50.78404 | 7.85909 | 21994 ft | 416 kts | 141° |
| 2026-05-05 19:44 | 50.76157 | 7.88809 | 22398 ft | 418 kts | 141° |
| 2026-05-05 19:44 | 50.73897 | 7.91728 | 22809 ft | 420 kts | 141° |
| 2026-05-05 19:44 | 50.71631 | 7.94655 | 23210 ft | 422 kts | 141° |
| 2026-05-05 19:45 | 50.69352 | 7.97594 | 23556 ft | 424 kts | 141° |
| 2026-05-05 19:45 | 50.67060 | 8.00547 | 23896 ft | 426 kts | 141° |
| 2026-05-05 19:45 | 50.64791 | 8.03467 | 24244 ft | 428 kts | 141° |
| 2026-05-05 19:45 | 50.62382 | 8.06215 | 24597 ft | 429 kts | 149° |
| 2026-05-05 19:46 | 50.59704 | 8.08291 | 24951 ft | 431 kts | 159° |
| 2026-05-05 19:46 | 50.56818 | 8.09609 | 25265 ft | 434 kts | 168° |
| 2026-05-05 19:46 | 50.53813 | 8.10172 | 25590 ft | 436 kts | 174° |
| 2026-05-05 19:46 | 50.50782 | 8.10555 | 25932 ft | 438 kts | 174° |
| 2026-05-05 19:47 | 50.47739 | 8.10945 | 26265 ft | 440 kts | 174° |
| 2026-05-05 19:47 | 50.44686 | 8.11343 | 26583 ft | 441 kts | 174° |
| 2026-05-05 19:47 | 50.41625 | 8.11750 | 26899 ft | 443 kts | 173° |
| 2026-05-05 19:47 | 50.38552 | 8.12157 | 27191 ft | 444 kts | 173° |
| 2026-05-05 19:48 | 50.35506 | 8.12557 | 27479 ft | 445 kts | 173° |
| 2026-05-05 19:48 | 50.32416 | 8.12966 | 27709 ft | 447 kts | 173° |
| 2026-05-05 19:48 | 50.29318 | 8.13377 | 28056 ft | 446 kts | 172° |
| 2026-05-05 19:48 | 50.26287 | 8.14342 | 28405 ft | 443 kts | 162° |
| 2026-05-05 19:49 | 50.23346 | 8.15704 | 28771 ft | 442 kts | 162° |
| 2026-05-05 19:49 | 50.21400 | 8.16622 | 29025 ft | 441 kts | 161° |
| 2026-05-05 19:49 | 50.17482 | 8.18486 | 29537 ft | 439 kts | 161° |
| 2026-05-05 19:49 | 50.14563 | 8.19883 | 29925 ft | 438 kts | 161° |
| 2026-05-05 19:50 | 50.11657 | 8.21272 | 30262 ft | 437 kts | 161° |
| 2026-05-05 19:50 | 50.08754 | 8.22650 | 30563 ft | 436 kts | 161° |
| 2026-05-05 19:50 | 50.05887 | 8.24003 | 30773 ft | 436 kts | 161° |
| 2026-05-05 19:51 | 50.00130 | 8.26710 | 30838 ft | 429 kts | 162° |
| 2026-05-05 19:51 | 49.94427 | 8.29386 | 30840 ft | 428 kts | 161° |
| 2026-05-05 19:52 | 49.88731 | 8.32066 | 30824 ft | 428 kts | 162° |
| 2026-05-05 19:52 | 49.83017 | 8.34730 | 30814 ft | 429 kts | 162° |
| 2026-05-05 19:53 | 49.77295 | 8.37382 | 30817 ft | 429 kts | 162° |
| 2026-05-05 19:53 | 49.71604 | 8.40025 | 30819 ft | 430 kts | 162° |
| 2026-05-05 19:54 | 49.65876 | 8.42683 | 30827 ft | 430 kts | 162° |
| 2026-05-05 19:54 | 49.60155 | 8.45333 | 30845 ft | 430 kts | 162° |
| 2026-05-05 19:55 | 49.54421 | 8.47987 | 30848 ft | 430 kts | 162° |
| 2026-05-05 19:55 | 49.48686 | 8.50627 | 30848 ft | 431 kts | 162° |
| 2026-05-05 19:56 | 49.42979 | 8.53240 | 30856 ft | 431 kts | 163° |
| 2026-05-05 19:56 | 49.37233 | 8.55869 | 30853 ft | 431 kts | 163° |
| 2026-05-05 19:57 | 49.31491 | 8.58496 | 30849 ft | 431 kts | 163° |
| 2026-05-05 19:57 | 49.25781 | 8.61103 | 30847 ft | 431 kts | 163° |
| 2026-05-05 19:58 | 49.20036 | 8.63717 | 30844 ft | 431 kts | 163° |
| 2026-05-05 19:58 | 49.14285 | 8.66330 | 30841 ft | 431 kts | 164° |
| 2026-05-05 19:59 | 49.08522 | 8.68934 | 30842 ft | 432 kts | 164° |
| 2026-05-05 19:59 | 49.02760 | 8.71528 | 30842 ft | 432 kts | 164° |
| 2026-05-05 20:00 | 48.97037 | 8.74108 | 30849 ft | 432 kts | 165° |
| 2026-05-05 20:00 | 48.91259 | 8.76610 | 30855 ft | 431 kts | 169° |
| 2026-05-05 20:01 | 48.85297 | 8.77006 | 30851 ft | 430 kts | 187° |
| 2026-05-05 20:01 | 48.79404 | 8.75446 | 30853 ft | 430 kts | 190° |
| 2026-05-05 20:02 | 48.73552 | 8.73875 | 30859 ft | 430 kts | 191° |
| 2026-05-05 20:02 | 48.67662 | 8.72316 | 30861 ft | 429 kts | 191° |
| 2026-05-05 20:03 | 48.61776 | 8.70754 | 30863 ft | 429 kts | 191° |
| 2026-05-05 20:03 | 48.55896 | 8.69190 | 30868 ft | 429 kts | 191° |
| 2026-05-05 20:04 | 48.51005 | 8.67883 | 30870 ft | 429 kts | 191° |
| 2026-05-05 20:04 | 48.44161 | 8.66063 | 30847 ft | 431 kts | 191° |
| 2026-05-05 20:05 | 48.38239 | 8.64501 | 30849 ft | 433 kts | 191° |
| 2026-05-05 20:05 | 48.33317 | 8.63112 | 30852 ft | 433 kts | 192° |
| 2026-05-05 20:06 | 48.27441 | 8.61302 | 30531 ft | 426 kts | 193° |
| 2026-05-05 20:06 | 48.24545 | 8.60401 | 29765 ft | 425 kts | 193° |
| 2026-05-05 20:06 | 48.21643 | 8.59508 | 28801 ft | 426 kts | 192° |
| 2026-05-05 20:06 | 48.17777 | 8.58331 | 27463 ft | 429 kts | 192° |
| 2026-05-05 20:07 | 48.14839 | 8.57445 | 26436 ft | 432 kts | 192° |
| 2026-05-05 20:07 | 48.12845 | 8.56849 | 25732 ft | 434 kts | 191° |
| 2026-05-05 20:07 | 48.09872 | 8.55967 | 24694 ft | 436 kts | 192° |
| 2026-05-05 20:07 | 48.06931 | 8.55097 | 23822 ft | 435 kts | 192° |
| 2026-05-05 20:08 | 48.03986 | 8.54229 | 23052 ft | 429 kts | 192° |
| 2026-05-05 20:08 | 48.01069 | 8.53368 | 22215 ft | 425 kts | 192° |
| 2026-05-05 20:08 | 47.98148 | 8.52835 | 21741 ft | 425 kts | 182° |
| 2026-05-05 20:08 | 47.95201 | 8.53222 | 21478 ft | 427 kts | 170° |